Aeroporto :
LOGIN :

Iscrizione | Disclaimer

   EN    FR    IT 

 










Sommario :    VFR   VFR Marginale   IFR   IFR Intensivo   IFR Molto Intensivo
Visibilità : 
Base nubi : 
>= 8 km
>= 3000ft
5 / 8 km
1000 / 3000 ft
1500m / 5 km
500 / 1000 ft
800 / 1500m
200 / 500 ft
< 800m
< 200 ft
Simboli :   Temporali  Nebbia  Neve Forte  Precipitazioni Forti  Vento > 20 kt
SIGMETs :   Varie  Temporali  Ghiacco  Turbolenza  Onda orograficha  Ceneri Vulcaniche






- Altitudine del aeroporto : 459 ft
- Codice IATA : CER


LFRC - Cherbourg / Maupertus

ULTIMO METAR :
  • 202100Z AUTO 19003KT CAVOK 16/15 Q1007

METARs OBSOLETI :
  • 202030Z AUTO VRB02KT 9999 FEW005 BKN100 BKN140 17/16 Q1007
  • 202000Z AUTO 27006KT 9999 BKN009 BKN015 17/17 Q1007
  • 201930Z AUTO 28005KT 9999 FEW009 BKN014 BKN022 18/17 Q1007
  • 201900Z AUTO 23006KT 9999 BKN010/// BKN028/// BKN092/// ///TCU 18/18 Q1007
  • 201830Z AUTO 24008KT 210V270 9999 -RA FEW009/// SCT033/// BKN066/// ///CB 18/18 Q1006
  • 201800Z AUTO 21010KT 1800 R28/1100U +RA BR FEW006/// BKN017/// BKN025/// ///CB 19/18 Q1007
  • 201730Z AUTO 10005KT 9999 BKN034/// OVC040/// ///TCU 20/18 Q1006 TEMPO VRB15G25KT 1200 TSRA BKN008 BKN030CB
  • 201700Z AUTO 15004KT 100V180 9999 BKN033 BKN039 OVC046 21/17 Q1006 TEMPO VRB15G25KT 1200 TSRA BKN008 BKN030CB
  • 201630Z AUTO 20006KT 160V240 9999 FEW024 BKN036 OVC042 21/17 Q1007 TEMPO VRB15G25KT 1200 TSRA BKN008 BKN030CB
  • 201600Z AUTO 25006KT 9999 FEW019 SCT025 OVC046 21/18 Q1007 TEMPO VRB15G25KT 1200 TSRA BKN008 BKN030CB

TAF TAF LFRC
Valido dal 20 a 15 ore il 21 a 00 ore UTC


201400Z 2015/2024 VRB05KT 9999 BKN020
TEMPO 2015/2022 3000 SHRA BKN008 BKN030CB
PROB40
TEMPO 2015/2021 VRB15G25KT 1200 TSRA BKN003
BECMG 2018/2020 BKN005



MetMap, La meteo Aeronautica in un colpo d'occhio ! - Copyright ORBIFLY Dicembre 2007 - Disclaimer

ORBIFLY MET'MAP TEAM :

Programmazione e sviluppo : Alexandra Zaïnal
Concezione : Baudouin d'Aumeries
Supporto tecnico e logistico : Manuel Goepfert
Aiuto : Marc-Olivier Méhu
Aiuto per la traduzione : Arnaldo La Scala




FONTI E CREDITI :

   NOAA